createdAt,value
2022-08-19T00:02:50.628Z,25.4
2022-08-19T00:08:13.658Z,25.4
2022-08-19T00:13:56.259Z,25.4
2022-08-19T00:19:42.273Z,25.4
2022-08-19T00:25:07.495Z,25.4
2022-08-19T00:31:22.714Z,25.4
2022-08-19T00:36:45.552Z,25.4
2022-08-19T00:42:31.965Z,25.4
2022-08-19T00:47:32.627Z,25.4
2022-08-19T00:53:05.495Z,25.4
2022-08-19T00:58:45.057Z,25.4
2022-08-19T01:05:05.437Z,25.4
2022-08-19T01:10:57.365Z,25.4
2022-08-19T01:16:52.343Z,25.3
2022-08-19T01:22:45.237Z,25.3
2022-08-19T01:28:57.338Z,25.3
2022-08-19T01:35:03.769Z,25.3
2022-08-19T01:40:46.656Z,25.3
2022-08-19T01:47:03.599Z,25.3
2022-08-19T01:52:46.750Z,25.3
2022-08-19T01:58:19.727Z,25.3
2022-08-19T02:04:02.047Z,25.3
2022-08-19T02:09:47.144Z,25.3
2022-08-19T02:15:39.568Z,25.2
2022-08-19T02:21:20.794Z,25.3
2022-08-19T02:27:06.430Z,25.3
2022-08-19T02:32:45.195Z,25.3
2022-08-19T02:38:42.987Z,25.3
2022-08-19T02:45:03.162Z,25.3
2022-08-19T02:50:51.678Z,25.2
2022-08-19T02:56:34.826Z,25.2
2022-08-19T03:02:06.011Z,25.2
2022-08-19T03:08:17.852Z,25.2
2022-08-19T03:13:54.062Z,25.2
2022-08-19T03:19:21.204Z,25.2
2022-08-19T03:24:58.154Z,25.2
2022-08-19T03:31:42.246Z,25.2
2022-08-19T03:37:36.569Z,25.2
2022-08-19T03:44:16.567Z,25.2
2022-08-19T03:50:00.736Z,25.1
2022-08-19T03:55:40.342Z,25.2
2022-08-19T04:01:46.575Z,25.1
2022-08-19T04:07:28.941Z,25.1
2022-08-19T04:13:24.083Z,25.1
2022-08-19T04:18:52.830Z,25.1
2022-08-19T04:24:20.235Z,25.2
2022-08-19T04:30:02.485Z,25.2
2022-08-19T04:36:23.127Z,25.1
2022-08-19T04:42:01.374Z,25.1
2022-08-19T04:49:10.677Z,25.1
2022-08-19T04:54:54.256Z,25.1
2022-08-19T05:00:35.210Z,25.1
2022-08-19T05:06:02.155Z,25.1
2022-08-19T05:12:16.019Z,25.1
2022-08-19T05:18:15.772Z,25.1
2022-08-19T05:24:02.884Z,25.1
2022-08-19T05:29:52.861Z,25.1
2022-08-19T05:36:00.088Z,25.1
2022-08-19T05:41:36.679Z,25.1
2022-08-19T05:47:20.490Z,25.2
2022-08-19T05:53:09.672Z,25.2
2022-08-19T05:58:46.381Z,25.2
2022-08-19T06:04:35.702Z,25.2
2022-08-19T06:10:43.369Z,25.2
2022-08-19T06:16:40.922Z,25.3
2022-08-19T06:22:42.622Z,25.3
2022-08-19T06:28:47.085Z,25.3
2022-08-19T06:34:25.636Z,25.3
2022-08-19T06:40:02.944Z,25.3
2022-08-19T06:46:15.588Z,25.3
2022-08-19T06:52:18.326Z,25.3
2022-08-19T06:58:32.641Z,25.3
2022-08-19T07:04:23.160Z,25.3
2022-08-19T07:11:09.327Z,25.4
2022-08-19T07:17:19.365Z,25.4
2022-08-19T07:23:23.770Z,25.4
2022-08-19T07:30:01.144Z,25.4
2022-08-19T07:35:53.532Z,25.4
2022-08-19T07:41:31.822Z,25.4
2022-08-19T07:47:48.423Z,25.4
2022-08-19T07:53:39.750Z,25.4
2022-08-19T07:59:48.033Z,25.4
2022-08-19T08:05:38.017Z,25.5
2022-08-19T08:11:48.673Z,25.5
2022-08-19T08:19:14.858Z,25.5
2022-08-19T08:25:04.724Z,25.5
2022-08-19T08:31:18.099Z,25.5
2022-08-19T08:37:11.482Z,25.5
2022-08-19T08:43:06.350Z,25.5
2022-08-19T08:49:33.097Z,25.6
2022-08-19T08:55:12.457Z,25.6
2022-08-19T09:01:08.478Z,25.6
2022-08-19T09:07:36.841Z,25.5
2022-08-19T09:14:29.383Z,25.6
2022-08-19T09:20:37.531Z,25.6
2022-08-19T09:27:18.314Z,25.6
2022-08-19T09:33:33.073Z,25.6
2022-08-19T09:40:09.336Z,25.6
2022-08-19T09:46:18.322Z,25.6
2022-08-19T09:51:49.060Z,25.6
2022-08-19T09:57:56.993Z,25.6
2022-08-19T10:03:52.780Z,25.6
2022-08-19T10:10:43.564Z,25.6
2022-08-19T10:17:31.582Z,25.6
2022-08-19T10:23:54.318Z,25.7
2022-08-19T10:29:49.729Z,25.7
2022-08-19T10:37:14.390Z,25.7
2022-08-19T10:43:08.741Z,25.8
2022-08-19T10:49:01.400Z,25.7
2022-08-19T10:55:24.616Z,25.7
2022-08-19T11:01:33.228Z,25.7
2022-08-19T11:07:33.712Z,25.8
2022-08-19T11:13:26.243Z,25.7
2022-08-19T11:19:08.202Z,25.7
2022-08-19T11:24:55.251Z,25.8
2022-08-19T11:30:32.776Z,25.8
2022-08-19T11:36:17.843Z,25.8
2022-08-19T11:41:55.344Z,25.8
2022-08-19T11:47:41.595Z,25.8
2022-08-19T11:53:26.520Z,25.8
2022-08-19T11:59:11.573Z,25.8
2022-08-19T12:04:53.401Z,25.8
2022-08-19T12:10:42.755Z,25.8
2022-08-19T12:16:27.994Z,25.8
2022-08-19T12:21:59.655Z,25.8
2022-08-19T12:27:57.704Z,25.8
2022-08-19T12:33:35.381Z,25.8
2022-08-19T12:39:20.246Z,25.8
2022-08-19T12:45:06.527Z,25.8
2022-08-19T12:52:06.562Z,25.8
2022-08-19T12:57:52.413Z,25.8
2022-08-19T13:03:20.592Z,25.8
2022-08-19T13:09:05.727Z,25.8
2022-08-19T13:14:46.252Z,25.9
2022-08-19T13:20:31.848Z,25.9
2022-08-19T13:26:28.844Z,25.9
2022-08-19T13:32:17.688Z,25.8
2022-08-19T13:38:03.731Z,25.9
2022-08-19T13:43:55.453Z,25.9
2022-08-19T13:49:38.685Z,25.9
2022-08-19T13:55:22.148Z,25.9
2022-08-19T14:01:06.746Z,25.9
2022-08-19T14:06:45.547Z,25.9
2022-08-19T14:12:29.754Z,25.9
2022-08-19T14:18:08.041Z,25.9
2022-08-19T14:24:01.845Z,25.9
2022-08-19T14:29:40.213Z,25.9
2022-08-19T14:35:27.356Z,25.9
2022-08-19T14:41:18.397Z,25.9
2022-08-19T14:46:49.449Z,25.9
2022-08-19T14:52:42.253Z,25.9
2022-08-19T14:58:46.585Z,26
2022-08-19T15:04:33.879Z,25.9
2022-08-19T15:10:27.512Z,25.9
2022-08-19T15:16:19.794Z,26
2022-08-19T15:22:00.027Z,25.9
2022-08-19T15:27:38.684Z,26
2022-08-19T15:33:28.260Z,26
2022-08-19T15:39:09.616Z,26
2022-08-19T15:44:43.733Z,26
2022-08-19T15:50:35.365Z,26
2022-08-19T15:56:43.681Z,26
2022-08-19T16:03:09.988Z,26.1
2022-08-19T16:09:05.744Z,26.1
2022-08-19T16:15:17.462Z,26.1
2022-08-19T16:21:00.468Z,26.1
2022-08-19T16:26:44.901Z,26.1
2022-08-19T16:32:48.351Z,26.1
2022-08-19T16:38:32.261Z,26.1
2022-08-19T16:44:09.811Z,26.1
2022-08-19T16:50:11.236Z,26.1
2022-08-19T16:56:13.946Z,26.1
2022-08-19T17:02:02.333Z,26.1
2022-08-19T17:07:58.138Z,26.1
2022-08-19T17:14:12.090Z,26.1
2022-08-19T17:19:52.598Z,26.1
2022-08-19T17:25:41.343Z,26.1
2022-08-19T17:31:08.575Z,26.2
2022-08-19T17:36:53.966Z,26.1
2022-08-19T17:42:38.842Z,26.1
2022-08-19T17:48:32.109Z,26.1
2022-08-19T17:54:20.049Z,26.2
2022-08-19T18:00:09.892Z,26.1
2022-08-19T18:06:11.384Z,26.1
2022-08-19T18:11:58.990Z,26.2
2022-08-19T18:17:43.082Z,26.2
2022-08-19T18:24:02.290Z,26.2
2022-08-19T18:29:39.681Z,26.2
2022-08-19T18:35:24.289Z,26.2
2022-08-19T18:40:52.602Z,26.2
2022-08-19T18:46:34.933Z,26.2
2022-08-19T18:52:36.870Z,26.2
2022-08-19T18:58:15.684Z,26.2
2022-08-19T19:03:53.733Z,26.2
2022-08-19T19:09:34.091Z,26.2
2022-08-19T19:15:35.255Z,26.2
2022-08-19T19:21:09.471Z,26.2
2022-08-19T19:27:13.306Z,26.2
2022-08-19T19:32:56.339Z,26.2
2022-08-19T19:38:54.785Z,26.2
2022-08-19T19:45:03.567Z,26.2
2022-08-19T19:51:12.609Z,26.2
2022-08-19T19:57:01.191Z,26.2
2022-08-19T20:02:51.152Z,26.2
2022-08-19T20:08:31.055Z,26.2
2022-08-19T20:14:15.583Z,26.1
2022-08-19T20:19:21.304Z,26.2
2022-08-19T20:25:16.297Z,26.2
2022-08-19T20:32:15.920Z,26.2
2022-08-19T20:37:58.317Z,26.2
2022-08-19T20:43:40.104Z,26.2
2022-08-19T20:49:44.179Z,26.2
2022-08-19T20:55:23.842Z,26.1
2022-08-19T21:01:10.736Z,26.1
2022-08-19T21:06:58.723Z,26.1
2022-08-19T21:13:00.314Z,26.2
2022-08-19T21:18:40.848Z,26.2
2022-08-19T21:24:26.454Z,26.2
2022-08-19T21:30:15.686Z,26.1
2022-08-19T21:36:01.612Z,26.1
2022-08-19T21:41:59.861Z,26.1
2022-08-19T21:47:09.161Z,26.1
2022-08-19T21:52:46.933Z,26.2
2022-08-19T21:58:33.768Z,26.1
2022-08-19T22:04:33.159Z,26.1
2022-08-19T22:09:56.983Z,26.1
2022-08-19T22:15:38.636Z,26.1
2022-08-19T22:21:20.206Z,26.1
2022-08-19T22:27:28.418Z,26.1
2022-08-19T22:33:35.227Z,26.1
2022-08-19T22:39:11.505Z,26.1
2022-08-19T22:44:19.943Z,26.1
2022-08-19T22:50:08.174Z,26.1
2022-08-19T22:55:38.109Z,26.1
2022-08-19T23:01:26.983Z,26.1
2022-08-19T23:07:23.713Z,26.1
2022-08-19T23:13:13.689Z,26.1
2022-08-19T23:19:00.275Z,26.1
2022-08-19T23:24:22.494Z,26.1
2022-08-19T23:30:08.763Z,26.1
2022-08-19T23:36:06.787Z,26.1
2022-08-19T23:41:44.193Z,26.1
2022-08-19T23:48:02.706Z,26
2022-08-19T23:53:29.799Z,26
2022-08-19T23:59:27.853Z,26
